Time;durP1;ratioP1;P1;durP2;ratioP2;P2;SDS_P1;SDS_P2;PMS_P1;PMS_P2;Temp;Humidity;BMP_temperature;BMP_pressure;BME280_temperature;BME280_humidity;BME280_pressure;Samples;Min_cycle;Max_cycle;Signal;HPM_P1;HPM_P2
2024/02/14 00:02:17;;;;;;;1.50;1.40;;;8.20;99.90;;;;;;5053436;28;20222;-75
2024/02/14 00:04:42;;;;;;;2.17;1.47;;;8.20;99.90;;;;;;5043604;28;20239;-75
2024/02/14 00:07:08;;;;;;;1.53;1.43;;;8.20;99.90;;;;;;5047848;28;20454;-75
2024/02/14 00:09:34;;;;;;;1.20;1.17;;;8.20;99.90;;;;;;5049010;28;20216;-75
2024/02/14 00:12:00;;;;;;;1.53;1.43;;;8.20;99.90;;;;;;5043383;28;20517;-74
2024/02/14 00:14:26;;;;;;;1.47;1.37;;;8.10;99.90;;;;;;5040002;28;20458;-76
2024/02/14 00:16:52;;;;;;;2.20;1.30;;;8.20;99.90;;;;;;5033199;28;20213;-76
2024/02/14 00:19:17;;;;;;;1.93;1.20;;;8.20;99.90;;;;;;5031451;28;20223;-76
2024/02/14 00:21:43;;;;;;;2.50;1.90;;;8.20;99.90;;;;;;5032110;28;20462;-75
2024/02/14 00:24:08;;;;;;;1.53;1.20;;;8.20;99.90;;;;;;5042139;28;20223;-74
2024/02/14 00:26:34;;;;;;;1.43;1.33;;;8.10;99.90;;;;;;5039367;28;20832;-74
2024/02/14 00:29:00;;;;;;;5.10;1.30;;;8.10;99.90;;;;;;5032419;28;20595;-74
2024/02/14 00:31:25;;;;;;;1.63;1.50;;;8.00;99.90;;;;;;5046052;28;20219;-75
2024/02/14 00:33:51;;;;;;;2.83;2.00;;;8.00;99.90;;;;;;5041662;28;20379;-75
2024/02/14 00:36:17;;;;;;;1.43;1.33;;;8.00;99.90;;;;;;5067731;28;20214;-75
2024/02/14 00:38:43;;;;;;;1.40;1.30;;;8.00;99.90;;;;;;5033772;28;20270;-75
2024/02/14 00:41:11;;;;;;;1.17;1.07;;;7.90;99.90;;;;;;5041816;28;20482;-75
2024/02/14 00:43:36;;;;;;;3.17;1.30;;;7.90;99.90;;;;;;5048176;28;20248;-75
2024/02/14 00:46:02;;;;;;;2.50;1.40;;;7.90;99.90;;;;;;5040226;28;20491;-75
2024/02/14 00:48:28;;;;;;;4.70;1.53;;;7.90;99.90;;;;;;5028043;28;20212;-74
2024/02/14 00:50:54;;;;;;;7.37;1.47;;;8.00;99.90;;;;;;5045004;28;20272;-75
2024/02/14 00:53:20;;;;;;;5.53;1.80;;;7.90;99.90;;;;;;5035472;28;20295;-75
2024/02/14 00:55:46;;;;;;;1.30;1.20;;;8.00;99.90;;;;;;5057005;28;20462;-75
2024/02/14 00:58:12;;;;;;;1.90;1.43;;;8.00;99.90;;;;;;5048390;28;20466;-74
2024/02/14 01:00:38;;;;;;;2.03;1.40;;;8.00;99.90;;;;;;5045940;28;20223;-76
2024/02/14 01:03:03;;;;;;;1.93;1.30;;;8.00;99.90;;;;;;5042554;28;20212;-74
2024/02/14 01:05:29;;;;;;;1.23;1.13;;;8.00;99.90;;;;;;5037785;28;20851;-74
2024/02/14 01:07:55;;;;;;;5.10;1.70;;;8.00;99.90;;;;;;5038338;28;20222;-73
2024/02/14 01:10:21;;;;;;;9.03;2.10;;;8.00;99.90;;;;;;5035676;28;20289;-74
2024/02/14 01:12:46;;;;;;;2.93;1.63;;;8.00;99.90;;;;;;5041988;28;20228;-74
2024/02/14 01:15:12;;;;;;;1.77;1.40;;;8.00;99.90;;;;;;5053878;28;20554;-75
2024/02/14 01:17:38;;;;;;;1.30;1.20;;;8.00;99.90;;;;;;5039267;28;20582;-74
2024/02/14 01:20:10;;;;;;;2.00;1.30;;;8.00;99.90;;;;;;5043719;28;20224;-74
2024/02/14 01:22:36;;;;;;;2.40;1.50;;;8.00;99.90;;;;;;5047206;28;20227;-73
2024/02/14 01:25:04;;;;;;;1.57;1.47;;;8.00;99.90;;;;;;5057782;28;20470;-75
2024/02/14 01:27:30;;;;;;;2.33;1.27;;;8.00;99.90;;;;;;5043590;28;20550;-74
2024/02/14 01:29:57;;;;;;;2.67;1.60;;;7.90;99.90;;;;;;5043022;28;20553;-74
2024/02/14 01:32:23;;;;;;;2.33;1.30;;;7.90;99.90;;;;;;5044714;28;20212;-75
2024/02/14 01:34:48;;;;;;;2.07;1.43;;;8.00;99.90;;;;;;5040615;28;20508;-74
2024/02/14 01:37:14;;;;;;;1.40;1.20;;;8.00;99.90;;;;;;5052139;28;20215;-75
2024/02/14 01:39:40;;;;;;;1.30;1.20;;;8.00;99.90;;;;;;5043260;28;20224;-74
2024/02/14 01:42:07;;;;;;;1.13;0.90;;;8.10;99.90;;;;;;5029606;28;20590;-74
2024/02/14 01:44:34;;;;;;;1.80;1.20;;;8.00;99.90;;;;;;5033797;28;20231;-74
2024/02/14 01:47:03;;;;;;;1.70;1.60;;;8.00;99.90;;;;;;5046068;28;21012;-75
2024/02/14 01:49:31;;;;;;;2.90;1.33;;;8.00;99.90;;;;;;5046293;28;20485;-75
2024/02/14 01:52:02;;;;;;;3.30;1.53;;;8.00;99.90;;;;;;5043336;28;21010;-75
2024/02/14 01:54:29;;;;;;;1.67;1.30;;;8.00;99.90;;;;;;5057861;28;20536;-75
2024/02/14 01:56:56;;;;;;;1.10;1.10;;;7.90;99.90;;;;;;5043841;28;20461;-74
2024/02/14 01:59:23;;;;;;;3.00;1.60;;;8.00;99.90;;;;;;5045659;28;20455;-76
2024/02/14 02:01:49;;;;;;;1.97;1.60;;;7.90;99.90;;;;;;5026549;28;20469;-75
2024/02/14 02:04:18;;;;;;;1.57;1.47;;;8.00;99.90;;;;;;5048004;28;21016;-76
2024/02/14 02:06:43;;;;;;;3.57;2.07;;;8.00;99.90;;;;;;5058162;28;20217;-75
2024/02/14 02:09:09;;;;;;;1.70;1.10;;;8.00;99.90;;;;;;5048821;28;20576;-75
2024/02/14 02:11:49;;;;;;;3.50;1.80;;;8.00;99.90;;;;;;5046374;28;20878;-75
2024/02/14 02:14:16;;;;;;;2.73;1.40;;;8.00;99.90;;;;;;5044702;28;20277;-75
2024/02/14 02:16:42;;;;;;;3.67;2.07;;;8.00;99.90;;;;;;5039914;28;20458;-75
2024/02/14 02:19:09;;;;;;;1.50;1.23;;;8.00;99.90;;;;;;5028552;28;20458;-75
2024/02/14 02:21:38;;;;;;;2.53;1.80;;;8.00;99.90;;;;;;5032285;28;21002;-75
2024/02/14 02:24:04;;;;;;;1.80;1.50;;;8.00;99.90;;;;;;5037526;28;20478;-74
2024/02/14 02:26:30;;;;;;;3.90;1.50;;;8.00;99.90;;;;;;5026993;28;20450;-75
2024/02/14 02:28:56;;;;;;;8.13;1.70;;;8.00;99.90;;;;;;5047179;28;20458;-75
2024/02/14 02:31:22;;;;;;;4.67;1.80;;;8.00;99.90;;;;;;5036750;28;20205;-75
2024/02/14 02:33:47;;;;;;;7.07;1.97;;;8.00;99.90;;;;;;5058568;28;20212;-75
2024/02/14 02:36:13;;;;;;;2.17;1.97;;;8.00;99.90;;;;;;5041263;28;20207;-75
2024/02/14 02:38:39;;;;;;;2.80;1.47;;;8.00;99.90;;;;;;5037912;28;20216;-74
2024/02/14 02:41:07;;;;;;;3.03;1.43;;;8.00;99.90;;;;;;5039926;28;20238;-75
2024/02/14 02:43:34;;;;;;;1.50;1.40;;;8.00;99.90;;;;;;5035074;28;20220;-75
2024/02/14 02:45:59;;;;;;;1.53;1.43;;;8.00;99.90;;;;;;5041639;28;20512;-75
2024/02/14 02:48:28;;;;;;;1.43;1.33;;;8.10;99.90;;;;;;5029048;28;20471;-75
2024/02/14 02:50:54;;;;;;;2.57;1.50;;;8.10;99.90;;;;;;5026401;28;20269;-75
2024/02/14 02:53:20;;;;;;;3.13;1.40;;;8.00;99.90;;;;;;5053155;28;20454;-75
2024/02/14 02:55:45;;;;;;;1.93;1.23;;;8.10;99.90;;;;;;5046168;28;20219;-75
2024/02/14 02:58:11;;;;;;;3.60;2.00;;;8.00;99.90;;;;;;5044442;28;20847;-75
2024/02/14 03:00:40;;;;;;;2.73;1.37;;;8.00;99.90;;;;;;5042513;28;20273;-75
2024/02/14 03:03:08;;;;;;;1.70;1.60;;;8.00;99.90;;;;;;5037448;28;20303;-75
2024/02/14 03:05:34;;;;;;;1.83;1.57;;;8.00;99.90;;;;;;5030442;28;20454;-75
2024/02/14 03:08:00;;;;;;;1.53;1.43;;;8.00;99.90;;;;;;5026538;28;20480;-75
2024/02/14 03:10:27;;;;;;;2.60;1.37;;;8.00;99.90;;;;;;5046317;28;20254;-75
2024/02/14 03:12:53;;;;;;;3.97;1.83;;;8.00;99.90;;;;;;5040026;28;20465;-75
2024/02/14 03:15:19;;;;;;;2.30;1.47;;;7.90;99.90;;;;;;5056300;28;20450;-76
2024/02/14 03:17:46;;;;;;;2.00;1.63;;;7.90;99.90;;;;;;5033283;28;20696;-75
2024/02/14 03:20:15;;;;;;;4.70;1.20;;;7.90;99.90;;;;;;5041766;28;20449;-75
2024/02/14 03:22:44;;;;;;;1.30;1.17;;;7.90;99.90;;;;;;5045570;28;21114;-75
2024/02/14 03:25:17;;;;;;;2.17;1.70;;;7.90;99.90;;;;;;5038850;28;20463;-75
2024/02/14 03:27:47;;;;;;;2.13;1.70;;;7.90;99.90;;;;;;5041380;28;20463;-75
2024/02/14 03:30:16;;;;;;;2.83;1.80;;;7.90;99.90;;;;;;5059352;28;20451;-76
2024/02/14 03:32:42;;;;;;;1.70;1.50;;;8.00;99.90;;;;;;5045212;28;20462;-74
2024/02/14 03:35:10;;;;;;;5.83;2.23;;;8.00;99.90;;;;;;5041674;28;20820;-73
2024/02/14 03:37:37;;;;;;;2.40;1.27;;;7.90;99.90;;;;;;5040380;28;20512;-74
2024/02/14 03:40:04;;;;;;;2.00;1.10;;;7.90;99.90;;;;;;5043111;28;20488;-75
2024/02/14 03:42:30;;;;;;;2.00;1.60;;;8.00;99.90;;;;;;5039720;28;20476;-75
2024/02/14 03:45:02;;;;;;;2.23;1.50;;;7.90;99.90;;;;;;5049231;28;20475;-75
2024/02/14 03:47:31;;;;;;;2.83;1.93;;;7.90;99.90;;;;;;5031650;28;20688;-75
2024/02/14 03:49:57;;;;;;;2.03;1.93;;;7.90;99.90;;;;;;5050523;28;20453;-76
2024/02/14 03:52:23;;;;;;;1.87;1.70;;;8.00;99.90;;;;;;5033157;28;20538;-75
2024/02/14 03:54:48;;;;;;;1.67;1.40;;;8.00;99.90;;;;;;5033965;28;20311;-75
2024/02/14 03:57:14;;;;;;;1.40;1.30;;;7.90;99.90;;;;;;5038706;28;20697;-75
2024/02/14 03:59:40;;;;;;;2.27;1.40;;;7.90;99.90;;;;;;5063433;28;20719;-75
2024/02/14 04:02:09;;;;;;;2.47;1.80;;;7.90;99.90;;;;;;5025622;28;20775;-75
2024/02/14 04:04:40;;;;;;;2.00;1.47;;;7.90;99.90;;;;;;5045411;28;20494;-75
2024/02/14 04:07:08;;;;;;;2.57;1.33;;;7.90;99.90;;;;;;5022757;28;20454;-75
2024/02/14 04:09:34;;;;;;;2.40;1.17;;;8.00;99.90;;;;;;5045818;28;20466;-76
2024/02/14 04:12:00;;;;;;;2.40;1.63;;;8.00;99.90;;;;;;5042624;28;20467;-75
2024/02/14 04:14:26;;;;;;;1.30;1.20;;;8.00;99.90;;;;;;5045655;28;20504;-75
2024/02/14 04:16:51;;;;;;;1.70;1.60;;;7.90;99.90;;;;;;5048758;28;20246;-75
2024/02/14 04:19:17;;;;;;;1.70;1.50;;;7.90;99.90;;;;;;5055138;28;20534;-75
2024/02/14 04:21:43;;;;;;;2.43;1.50;;;7.90;99.90;;;;;;5043075;28;20725;-76
2024/02/14 04:24:09;;;;;;;2.20;1.77;;;7.80;99.90;;;;;;5041902;28;20225;-75
2024/02/14 04:26:35;;;;;;;2.10;1.40;;;7.80;99.90;;;;;;5051042;28;20538;-74
2024/02/14 04:29:01;;;;;;;5.30;2.13;;;7.80;99.90;;;;;;5025943;28;20307;-75
2024/02/14 04:31:29;;;;;;;4.10;1.97;;;7.80;99.90;;;;;;5041708;28;20258;-75
2024/02/14 04:33:55;;;;;;;2.70;1.83;;;7.80;99.90;;;;;;5049002;28;20824;-75
2024/02/14 04:36:22;;;;;;;2.27;1.10;;;7.80;99.90;;;;;;5049580;28;20465;-76
2024/02/14 04:38:49;;;;;;;2.40;1.90;;;7.80;99.90;;;;;;5041835;28;20463;-74
2024/02/14 04:41:15;;;;;;;5.50;1.87;;;7.80;99.90;;;;;;5044780;28;20469;-75
2024/02/14 04:43:41;;;;;;;1.97;1.40;;;7.80;99.90;;;;;;5064419;28;20462;-74
2024/02/14 04:46:08;;;;;;;1.83;1.30;;;7.80;99.90;;;;;;5043219;28;20457;-75
2024/02/14 04:48:35;;;;;;;1.47;1.37;;;7.80;99.90;;;;;;5017621;28;20223;-75
2024/02/14 04:51:01;;;;;;;2.83;1.90;;;7.80;99.90;;;;;;5055198;28;20449;-75
2024/02/14 04:53:27;;;;;;;1.70;1.20;;;7.80;99.90;;;;;;5053386;28;20461;-75
2024/02/14 04:55:53;;;;;;;2.63;1.93;;;7.90;99.90;;;;;;5064207;28;20451;-75
2024/02/14 04:58:19;;;;;;;1.80;1.60;;;7.90;99.90;;;;;;5031438;28;20469;-75
2024/02/14 05:00:45;;;;;;;2.60;1.80;;;7.90;99.90;;;;;;5041827;28;20461;-74
2024/02/14 05:03:11;;;;;;;1.87;1.53;;;8.00;99.90;;;;;;5038507;28;20435;-75
2024/02/14 05:05:37;;;;;;;2.67;1.53;;;7.90;99.90;;;;;;5038002;28;20315;-74
2024/02/14 05:08:04;;;;;;;2.93;1.80;;;8.00;99.90;;;;;;5040375;28;20238;-75
2024/02/14 05:10:30;;;;;;;2.83;1.67;;;8.00;99.90;;;;;;5036661;28;20446;-75
2024/02/14 05:12:55;;;;;;;3.30;1.87;;;8.00;99.90;;;;;;5041713;28;20473;-75
2024/02/14 05:15:21;;;;;;;1.90;1.53;;;8.00;99.90;;;;;;5021523;28;20949;-75
2024/02/14 05:17:47;;;;;;;3.10;1.90;;;8.00;99.90;;;;;;5043804;28;20230;-75
2024/02/14 05:20:12;;;;;;;2.47;2.20;;;8.00;99.90;;;;;;5042380;28;20799;-75
2024/02/14 05:22:38;;;;;;;1.93;1.57;;;8.00;99.90;;;;;;5028687;28;20242;-75
2024/02/14 05:25:05;;;;;;;2.87;1.77;;;8.00;99.90;;;;;;5048606;28;20223;-75
2024/02/14 05:27:31;;;;;;;3.93;2.23;;;8.00;99.90;;;;;;5037365;28;20505;-74
2024/02/14 05:29:57;;;;;;;5.00;1.70;;;8.00;99.90;;;;;;5040943;28;20478;-75
2024/02/14 05:32:23;;;;;;;1.73;1.40;;;8.00;99.90;;;;;;5054761;28;20455;-74
2024/02/14 05:34:50;;;;;;;5.33;1.90;;;8.00;99.90;;;;;;5031013;28;20476;-76
2024/02/14 05:37:16;;;;;;;3.30;1.60;;;8.10;99.90;;;;;;5045456;28;20466;-76
2024/02/14 05:39:42;;;;;;;2.83;1.97;;;8.10;99.90;;;;;;5041836;28;20839;-76
2024/02/14 05:42:08;;;;;;;1.90;1.80;;;8.10;99.90;;;;;;5030607;28;20215;-76
2024/02/14 05:44:34;;;;;;;2.50;1.70;;;8.00;99.90;;;;;;5039982;28;20959;-76
2024/02/14 05:47:00;;;;;;;2.97;1.87;;;8.10;99.90;;;;;;5050113;28;20537;-75
2024/02/14 05:49:26;;;;;;;2.07;1.50;;;8.10;99.90;;;;;;5032430;28;20819;-76
2024/02/14 05:51:53;;;;;;;1.87;1.30;;;8.00;99.90;;;;;;5034419;28;20287;-75
2024/02/14 05:54:19;;;;;;;2.87;1.97;;;8.00;99.90;;;;;;5038392;28;20925;-76
2024/02/14 05:56:48;;;;;;;2.07;1.63;;;8.00;99.90;;;;;;5040226;28;20519;-74
2024/02/14 05:59:14;;;;;;;2.20;2.00;;;8.10;99.90;;;;;;5033710;28;20461;-77
2024/02/14 06:01:39;;;;;;;1.83;1.73;;;8.10;99.90;;;;;;5046914;28;20454;-76
2024/02/14 06:04:05;;;;;;;2.40;1.57;;;8.10;99.90;;;;;;5041816;28;20228;-76
2024/02/14 06:06:31;;;;;;;3.60;1.90;;;8.10;99.90;;;;;;5030676;28;20223;-74
2024/02/14 06:08:57;;;;;;;4.90;2.63;;;8.10;99.90;;;;;;5050868;28;20217;-74
2024/02/14 06:11:23;;;;;;;3.27;2.07;;;8.10;99.90;;;;;;5033437;28;20729;-75
2024/02/14 06:13:48;;;;;;;3.23;1.77;;;8.20;99.90;;;;;;5028427;28;20462;-75
2024/02/14 06:16:14;;;;;;;3.57;1.60;;;8.20;99.90;;;;;;5055867;28;20215;-75
2024/02/14 06:18:40;;;;;;;2.00;1.87;;;8.10;99.90;;;;;;5045265;28;20362;-74
2024/02/14 06:21:06;;;;;;;3.63;1.60;;;8.10;99.90;;;;;;5041880;28;20225;-74
2024/02/14 06:23:32;;;;;;;3.30;1.87;;;8.10;99.90;;;;;;5037348;28;20214;-74
2024/02/14 06:25:58;;;;;;;2.27;1.90;;;8.10;99.90;;;;;;5039276;28;20462;-74
2024/02/14 06:28:24;;;;;;;5.73;1.87;;;8.10;99.90;;;;;;5036451;28;20281;-74
2024/02/14 06:30:50;;;;;;;6.03;1.60;;;8.10;99.90;;;;;;5035948;28;20458;-72
2024/02/14 06:33:16;;;;;;;3.53;1.70;;;8.10;99.90;;;;;;5047138;28;20228;-73
2024/02/14 06:35:41;;;;;;;3.63;2.30;;;8.10;99.90;;;;;;5040048;28;20217;-74
2024/02/14 06:38:07;;;;;;;1.80;1.50;;;8.10;99.90;;;;;;5044672;28;20242;-74
2024/02/14 06:40:33;;;;;;;2.93;2.10;;;8.10;99.90;;;;;;5044171;28;20243;-74
2024/02/14 06:43:02;;;;;;;1.63;1.53;;;8.10;99.90;;;;;;5043964;28;20215;-74
2024/02/14 06:45:28;;;;;;;3.77;2.07;;;8.00;99.90;;;;;;5053648;28;20231;-74
2024/02/14 06:47:54;;;;;;;5.40;2.17;;;8.10;99.90;;;;;;5025466;28;20566;-73
2024/02/14 06:50:20;;;;;;;2.10;1.87;;;8.10;99.90;;;;;;5046962;28;20545;-74
2024/02/14 06:52:46;;;;;;;2.63;1.90;;;8.10;99.90;;;;;;5046228;28;20247;-74
2024/02/14 06:55:11;;;;;;;2.07;1.97;;;8.10;99.90;;;;;;5050593;28;20223;-73
2024/02/14 06:57:39;;;;;;;2.53;1.77;;;8.10;99.90;;;;;;5045865;28;20235;-74
2024/02/14 07:00:06;;;;;;;3.10;1.93;;;8.10;99.90;;;;;;5043515;28;20216;-74
2024/02/14 07:02:32;;;;;;;5.33;2.50;;;8.10;99.90;;;;;;5037070;28;20466;-74
2024/02/14 07:04:57;;;;;;;2.00;1.80;;;8.10;99.90;;;;;;5045081;28;20470;-74
2024/02/14 07:07:23;;;;;;;1.60;1.50;;;8.20;99.90;;;;;;5045198;28;20219;-74
2024/02/14 07:09:49;;;;;;;3.23;2.03;;;8.20;99.90;;;;;;5043597;28;20231;-74
2024/02/14 07:12:14;;;;;;;3.40;2.03;;;8.20;99.90;;;;;;5048390;28;20219;-75
2024/02/14 07:14:41;;;;;;;2.47;1.83;;;8.20;99.90;;;;;;5048738;28;20224;-74
2024/02/14 07:17:07;;;;;;;2.90;1.67;;;8.20;99.90;;;;;;5053047;28;20311;-74
2024/02/14 07:19:32;;;;;;;3.63;2.30;;;8.20;99.90;;;;;;5038543;28;20561;-75
2024/02/14 07:21:58;;;;;;;1.77;1.67;;;8.20;99.90;;;;;;5031113;28;20290;-75
2024/02/14 07:24:23;;;;;;;1.53;1.43;;;8.30;99.90;;;;;;5043873;28;20262;-74
2024/02/14 07:26:49;;;;;;;2.50;1.93;;;8.30;99.90;;;;;;5042923;28;20254;-73
2024/02/14 07:29:15;;;;;;;3.57;2.77;;;8.30;99.90;;;;;;5044169;28;20689;-74
2024/02/14 07:31:41;;;;;;;2.97;2.47;;;8.30;99.90;;;;;;5046232;28;20627;-75
2024/02/14 07:34:07;;;;;;;2.27;1.83;;;8.30;99.90;;;;;;5042470;28;20238;-74
2024/02/14 07:36:32;;;;;;;2.07;1.93;;;8.30;99.90;;;;;;5039629;28;20972;-74
2024/02/14 07:38:58;;;;;;;2.97;2.03;;;8.30;99.90;;;;;;5040589;28;20350;-74
2024/02/14 07:41:24;;;;;;;4.80;2.20;;;8.30;99.90;;;;;;5040119;28;20219;-74
2024/02/14 07:43:50;;;;;;;2.60;1.87;;;8.30;99.90;;;;;;5042449;28;20231;-73
2024/02/14 07:46:20;;;;;;;2.03;1.60;;;8.30;99.90;;;;;;5051477;28;20212;-74
2024/02/14 07:48:46;;;;;;;3.90;2.60;;;8.30;99.90;;;;;;5044795;28;20209;-74
2024/02/14 07:51:12;;;;;;;2.37;2.00;;;8.30;99.90;;;;;;5026582;28;20853;-74
2024/02/14 07:53:37;;;;;;;3.80;2.10;;;8.40;99.90;;;;;;5036264;28;20453;-74
2024/02/14 07:56:03;;;;;;;3.83;2.50;;;8.30;99.90;;;;;;5026169;28;20446;-75
2024/02/14 07:58:29;;;;;;;9.63;1.73;;;8.40;99.90;;;;;;5042542;28;20219;-74
2024/02/14 08:00:55;;;;;;;5.20;1.80;;;8.40;99.90;;;;;;5047379;28;20288;-74
2024/02/14 08:03:20;;;;;;;2.20;1.60;;;8.40;99.90;;;;;;5041560;28;20241;-75
2024/02/14 08:05:46;;;;;;;2.50;2.10;;;8.50;99.90;;;;;;5041560;28;20607;-75
2024/02/14 08:08:12;;;;;;;1.60;1.50;;;8.40;99.90;;;;;;5032359;28;20219;-75
2024/02/14 08:10:38;;;;;;;3.83;1.90;;;8.40;99.90;;;;;;5043465;28;20783;-74
2024/02/14 08:13:04;;;;;;;2.20;1.80;;;8.50;99.90;;;;;;5041946;28;20228;-77
2024/02/14 08:15:30;;;;;;;1.83;1.67;;;8.50;99.90;;;;;;5042015;28;20461;-77
2024/02/14 08:17:56;;;;;;;3.53;2.50;;;8.50;99.90;;;;;;5041201;28;20269;-76
2024/02/14 08:20:23;;;;;;;3.97;2.20;;;8.50;99.90;;;;;;5044233;28;20215;-76
2024/02/14 08:22:50;;;;;;;2.37;2.13;;;8.50;99.90;;;;;;5057225;28;20459;-77
2024/02/14 08:25:16;;;;;;;2.83;2.13;;;8.60;99.90;;;;;;5041244;28;20471;-76
2024/02/14 08:27:41;;;;;;;2.20;1.97;;;8.60;99.90;;;;;;5040183;28;20608;-76
2024/02/14 08:30:08;;;;;;;3.87;2.30;;;8.60;99.90;;;;;;5043568;28;20212;-76
2024/02/14 08:32:34;;;;;;;2.50;2.30;;;8.60;99.90;;;;;;5044072;28;20219;-76
2024/02/14 08:35:01;;;;;;;11.40;2.50;;;8.60;99.90;;;;;;5042838;28;20450;-75
2024/02/14 08:37:27;;;;;;;3.83;2.20;;;8.60;99.90;;;;;;5035781;28;20466;-75
2024/02/14 08:39:53;;;;;;;3.77;2.27;;;8.60;99.90;;;;;;5040142;28;20480;-75
2024/02/14 08:42:18;;;;;;;2.83;2.07;;;8.60;99.90;;;;;;5047949;28;20222;-75
2024/02/14 08:44:44;;;;;;;2.40;2.13;;;8.60;99.90;;;;;;5028752;28;20536;-75
2024/02/14 08:47:10;;;;;;;2.30;2.00;;;8.60;99.90;;;;;;5046318;28;20215;-76
2024/02/14 08:49:36;;;;;;;3.00;2.70;;;8.70;99.90;;;;;;5039211;28;20302;-75
2024/02/14 08:52:02;;;;;;;3.50;2.20;;;8.70;99.90;;;;;;5040718;28;20519;-75
2024/02/14 08:54:28;;;;;;;2.53;2.30;;;8.70;99.90;;;;;;5045826;28;20899;-75
2024/02/14 08:56:55;;;;;;;2.63;2.30;;;8.70;99.90;;;;;;5056884;28;20496;-75
2024/02/14 08:59:21;;;;;;;2.50;1.97;;;8.70;99.90;;;;;;5043281;28;20215;-75
2024/02/14 09:01:48;;;;;;;3.50;2.23;;;8.80;99.90;;;;;;5032101;28;20529;-76
2024/02/14 09:04:14;;;;;;;4.13;2.47;;;8.80;99.90;;;;;;5046153;28;20219;-75
2024/02/14 09:06:40;;;;;;;5.60;2.73;;;8.80;99.90;;;;;;5042754;28;20441;-75
2024/02/14 09:09:10;;;;;;;2.37;2.00;;;8.80;99.90;;;;;;5027531;28;20486;-75
2024/02/14 09:11:36;;;;;;;3.50;3.20;;;8.80;99.90;;;;;;5037164;28;20454;-75
2024/02/14 09:14:06;;;;;;;4.40;3.03;;;8.80;99.90;;;;;;5022433;28;21000;-76
2024/02/14 09:16:33;;;;;;;3.23;2.30;;;8.80;99.90;;;;;;5033968;28;20839;-75
2024/02/14 09:18:59;;;;;;;2.90;2.30;;;8.80;99.90;;;;;;5042630;28;20454;-75
2024/02/14 09:21:25;;;;;;;4.63;1.97;;;8.90;99.90;;;;;;5025005;28;20453;-75
2024/02/14 09:23:51;;;;;;;3.03;2.33;;;8.90;99.90;;;;;;5032625;28;20454;-75
2024/02/14 09:26:17;;;;;;;2.20;2.00;;;8.90;99.90;;;;;;5045086;28;20219;-75
2024/02/14 09:28:43;;;;;;;2.53;2.10;;;8.90;99.90;;;;;;5045500;28;20462;-75
2024/02/14 09:31:12;;;;;;;3.20;2.37;;;8.90;99.90;;;;;;5040523;28;20215;-76
2024/02/14 09:33:38;;;;;;;2.23;1.80;;;8.90;99.90;;;;;;5040683;28;20452;-76
2024/02/14 09:36:04;;;;;;;2.50;1.90;;;9.00;99.90;;;;;;5042263;28;20533;-75
2024/02/14 09:38:30;;;;;;;5.23;2.33;;;9.00;99.90;;;;;;5031041;28;20902;-75
2024/02/14 09:41:17;;;;;;;2.97;2.20;;;9.10;99.90;;;;;;5041461;28;20481;-75
2024/02/14 09:43:44;;;;;;;3.50;2.63;;;9.10;99.90;;;;;;5033014;28;20449;-75
2024/02/14 09:46:13;;;;;;;3.60;2.53;;;9.20;99.90;;;;;;5041750;28;20501;-76
2024/02/14 09:48:42;;;;;;;1.80;1.70;;;9.30;99.90;;;;;;5036220;28;20462;-75
2024/02/14 09:51:09;;;;;;;3.50;2.10;;;9.30;99.90;;;;;;5034044;28;20454;-76
2024/02/14 09:53:34;;;;;;;2.07;1.90;;;9.40;99.90;;;;;;5036826;28;20465;-75
2024/02/14 09:56:02;;;;;;;1.83;1.40;;;9.40;99.90;;;;;;5044386;28;20549;-75
2024/02/14 09:58:29;;;;;;;1.83;1.73;;;9.50;99.90;;;;;;5052626;28;20466;-75
2024/02/14 10:00:55;;;;;;;3.63;1.83;;;9.60;99.90;;;;;;5044798;28;20455;-75
2024/02/14 10:03:20;;;;;;;2.60;1.90;;;9.60;99.90;;;;;;5030972;28;20508;-76
2024/02/14 10:05:46;;;;;;;1.80;1.70;;;9.60;99.90;;;;;;5044915;28;20255;-75
2024/02/14 10:08:12;;;;;;;2.03;1.90;;;9.60;99.90;;;;;;5050118;28;20231;-76
2024/02/14 10:10:38;;;;;;;1.87;1.77;;;9.70;99.90;;;;;;5038650;28;20221;-76
2024/02/14 10:13:05;;;;;;;3.43;1.67;;;9.70;99.90;;;;;;5046489;28;20223;-75
2024/02/14 10:15:31;;;;;;;2.60;2.23;;;9.70;99.90;;;;;;5022219;28;20470;-75
2024/02/14 10:17:59;;;;;;;1.77;1.67;;;9.70;99.90;;;;;;5041173;28;20466;-75
2024/02/14 10:20:26;;;;;;;2.60;2.20;;;9.70;99.90;;;;;;5042612;28;20511;-76
2024/02/14 10:22:52;;;;;;;2.10;1.90;;;9.70;99.90;;;;;;5043234;28;20461;-76
2024/02/14 10:25:18;;;;;;;2.30;1.93;;;9.70;99.90;;;;;;5040403;28;20464;-75
2024/02/14 10:27:46;;;;;;;2.23;2.03;;;9.80;99.90;;;;;;5051102;28;20223;-76
2024/02/14 10:30:14;;;;;;;1.70;1.53;;;9.80;99.90;;;;;;5036726;28;20469;-76
2024/02/14 10:32:40;;;;;;;1.70;1.60;;;9.80;99.90;;;;;;5040440;28;20531;-75
2024/02/14 10:35:11;;;;;;;2.30;1.93;;;9.80;99.90;;;;;;5046250;28;20800;-75
2024/02/14 10:37:38;;;;;;;2.87;1.90;;;9.80;99.90;;;;;;5037357;28;20534;-75
2024/02/14 10:40:04;;;;;;;2.40;2.10;;;9.80;99.90;;;;;;5048218;28;20458;-74
2024/02/14 10:42:33;;;;;;;2.40;1.93;;;9.90;99.90;;;;;;5047558;28;21036;-76
2024/02/14 10:45:00;;;;;;;2.50;2.30;;;9.90;99.90;;;;;;5026730;28;20475;-75
2024/02/14 10:47:31;;;;;;;2.07;1.87;;;10.00;99.90;;;;;;5044453;28;20955;-76
2024/02/14 10:50:03;;;;;;;3.40;2.33;;;10.00;99.90;;;;;;5023349;28;20474;-75
2024/02/14 10:52:34;;;;;;;2.57;1.60;;;10.00;99.90;;;;;;5043535;28;20549;-76
2024/02/14 10:55:03;;;;;;;3.27;2.17;;;10.00;99.90;;;;;;5045811;28;20446;-75
2024/02/14 10:57:29;;;;;;;2.20;2.00;;;10.10;99.90;;;;;;5023388;28;20470;-76
2024/02/14 10:59:55;;;;;;;1.93;1.40;;;10.10;99.90;;;;;;5042318;28;20482;-75
2024/02/14 11:02:22;;;;;;;2.23;1.87;;;10.20;99.90;;;;;;5036125;28;20455;-76
2024/02/14 11:04:52;;;;;;;2.57;1.90;;;10.20;99.90;;;;;;5040672;28;20462;-75
2024/02/14 11:07:19;;;;;;;1.63;1.53;;;10.20;99.90;;;;;;5024414;28;20556;-76
2024/02/14 11:09:45;;;;;;;1.50;1.40;;;10.30;99.90;;;;;;5041058;28;20516;-76
2024/02/14 11:12:11;;;;;;;2.60;2.10;;;10.30;99.90;;;;;;5042345;28;20465;-75
2024/02/14 11:14:39;;;;;;;2.20;1.77;;;10.30;99.90;;;;;;5056090;28;20449;-75
2024/02/14 11:17:09;;;;;;;2.60;2.00;;;10.40;99.90;;;;;;5042764;28;20462;-75
2024/02/14 11:19:38;;;;;;;2.37;2.17;;;10.40;99.90;;;;;;5038565;28;21016;-75
2024/02/14 11:22:18;;;;;;;2.47;1.80;;;10.40;99.90;;;;;;5041748;28;20520;-75
2024/02/14 11:24:46;;;;;;;2.57;2.33;;;10.50;99.90;;;;;;5041877;28;20462;-75
2024/02/14 11:27:12;;;;;;;4.47;3.37;;;10.50;99.90;;;;;;5052796;28;20459;-76
2024/02/14 11:29:50;;;;;;;2.70;2.50;;;10.60;99.90;;;;;;5043361;28;20479;-75
2024/02/14 11:32:18;;;;;;;2.87;2.67;;;10.60;99.90;;;;;;5046011;28;20446;-75
2024/02/14 11:34:52;;;;;;;3.87;2.90;;;10.60;99.90;;;;;;5044546;28;20515;-75
2024/02/14 11:37:20;;;;;;;3.07;2.50;;;10.60;99.90;;;;;;5033086;28;20450;-76
2024/02/14 11:39:46;;;;;;;2.93;2.63;;;10.60;99.90;;;;;;5067274;28;20458;-75
2024/02/14 11:42:13;;;;;;;3.37;2.57;;;10.60;99.90;;;;;;5032733;28;20549;-75
2024/02/14 11:44:42;;;;;;;4.30;2.80;;;10.60;99.90;;;;;;5051873;28;20450;-75
2024/02/14 11:47:09;;;;;;;3.57;2.80;;;10.60;99.90;;;;;;5050455;28;20450;-75
2024/02/14 11:49:36;;;;;;;2.90;2.27;;;10.60;99.90;;;;;;5051836;28;20446;-76
2024/02/14 11:52:04;;;;;;;2.70;2.43;;;10.70;99.90;;;;;;5046509;28;20458;-75
2024/02/14 11:54:30;;;;;;;2.80;2.60;;;10.70;99.90;;;;;;5062230;28;20503;-75
2024/02/14 11:56:55;;;;;;;3.70;3.00;;;10.70;99.90;;;;;;5048304;28;20529;-75
2024/02/14 11:59:23;;;;;;;7.90;2.90;;;10.70;99.90;;;;;;5047162;28;20987;-75
2024/02/14 12:01:51;;;;;;;9.80;3.30;;;10.80;99.90;;;;;;5047751;28;20227;-75
2024/02/14 12:04:18;;;;;;;2.83;2.60;;;10.80;99.90;;;;;;5047709;28;20620;-75
2024/02/14 12:06:44;;;;;;;3.20;2.90;;;10.80;99.90;;;;;;5050406;28;20446;-76
2024/02/14 12:09:12;;;;;;;4.37;2.80;;;10.80;99.90;;;;;;5046541;28;20537;-75
2024/02/14 12:11:42;;;;;;;3.33;2.67;;;10.80;99.90;;;;;;5048861;28;20460;-75
2024/02/14 12:14:09;;;;;;;3.00;2.50;;;10.80;99.90;;;;;;5039691;28;20527;-75
2024/02/14 12:16:40;;;;;;;3.27;2.97;;;10.90;99.90;;;;;;5053220;28;20449;-75
2024/02/14 12:19:16;;;;;;;4.13;2.83;;;10.90;99.90;;;;;;5048751;28;20450;-75
2024/02/14 12:21:45;;;;;;;4.80;3.00;;;10.90;99.90;;;;;;5046236;28;20442;-75
2024/02/14 12:24:13;;;;;;;4.13;2.90;;;10.90;99.90;;;;;;5054029;28;20842;-75
2024/02/14 12:26:41;;;;;;;5.40;3.27;;;10.90;99.90;;;;;;5048314;28;20924;-76
2024/02/14 12:29:08;;;;;;;4.03;3.60;;;11.00;99.90;;;;;;5044613;28;20635;-75
2024/02/14 12:31:34;;;;;;;3.40;3.10;;;11.00;99.90;;;;;;5053176;28;20489;-75
2024/02/14 12:34:02;;;;;;;3.73;3.00;;;11.00;99.90;;;;;;5050068;28;20967;-76
2024/02/14 12:36:28;;;;;;;6.50;3.40;;;11.00;99.90;;;;;;5029081;28;20446;-75
2024/02/14 12:38:57;;;;;;;2.87;2.53;;;11.00;99.90;;;;;;5053790;28;20442;-75
2024/02/14 12:41:26;;;;;;;3.50;3.00;;;11.00;99.90;;;;;;5050587;28;20450;-75
2024/02/14 12:43:53;;;;;;;5.17;3.93;;;11.00;99.90;;;;;;5051668;28;20446;-75
2024/02/14 12:46:19;;;;;;;5.53;3.30;;;11.00;99.90;;;;;;5045098;28;20504;-76
2024/02/14 12:48:45;;;;;;;3.37;3.07;;;11.00;99.90;;;;;;5052334;28;20441;-76
2024/02/14 12:51:11;;;;;;;4.10;3.70;;;11.00;99.90;;;;;;5030157;28;20948;-75
2024/02/14 12:53:36;;;;;;;6.47;3.20;;;11.10;99.90;;;;;;5051886;28;20215;-75